createdAt,value
2024-05-09T00:00:36.137Z,13.50
2024-05-09T00:03:08.401Z,13.50
2024-05-09T00:05:37.002Z,13.40
2024-05-09T00:08:04.691Z,13.40
2024-05-09T00:10:36.543Z,13.30
2024-05-09T00:13:06.150Z,13.30
2024-05-09T00:15:33.935Z,13.30
2024-05-09T00:18:01.602Z,13.20
2024-05-09T00:20:36.786Z,13.20
2024-05-09T00:23:07.510Z,13.20
2024-05-09T00:25:35.474Z,13.20
2024-05-09T00:28:02.646Z,13.10
2024-05-09T00:30:34.445Z,13.20
2024-05-09T00:33:05.514Z,13.20
2024-05-09T00:35:33.671Z,13.20
2024-05-09T00:38:00.829Z,13.20
2024-05-09T00:40:38.739Z,13.20
2024-05-09T00:43:08.260Z,13.20
2024-05-09T00:45:35.795Z,13.20
2024-05-09T00:48:06.738Z,13.20
2024-05-09T00:50:38.055Z,13.20
2024-05-09T00:53:07.731Z,13.30
2024-05-09T00:55:37.416Z,13.20
2024-05-09T00:58:05.487Z,13.20
2024-05-09T01:00:38.807Z,13.20
2024-05-09T01:03:09.722Z,13.20
2024-05-09T01:05:39.206Z,13.20
2024-05-09T01:10:48.665Z,13.20
2024-05-09T01:13:15.734Z,13.20
2024-05-09T01:15:42.963Z,13.20
2024-05-09T01:18:12.250Z,13.20
2024-05-09T01:20:43.235Z,13.10
2024-05-09T01:23:14.208Z,13.10
2024-05-09T01:25:42.706Z,13.10
2024-05-09T01:28:09.743Z,13.10
2024-05-09T01:30:37.923Z,13.00
2024-05-09T01:33:09.876Z,13.00
2024-05-09T01:35:41.323Z,12.90
2024-05-09T01:38:09.807Z,12.90
2024-05-09T01:40:39.479Z,12.90
2024-05-09T01:43:08.832Z,12.90
2024-05-09T01:45:36.691Z,12.90
2024-05-09T01:48:04.118Z,12.90
2024-05-09T01:53:01.271Z,12.80
2024-05-09T01:55:28.083Z,12.80
2024-05-09T01:57:54.862Z,12.80
2024-05-09T02:00:33.764Z,12.80
2024-05-09T02:03:14.027Z,12.80
2024-05-09T02:05:43.978Z,12.80
2024-05-09T02:08:19.449Z,12.80
2024-05-09T02:10:47.834Z,12.80
2024-05-09T02:13:15.832Z,12.80
2024-05-09T02:15:42.905Z,12.70
2024-05-09T02:18:10.428Z,12.80
2024-05-09T02:20:41.709Z,12.80
2024-05-09T02:23:09.439Z,12.80
2024-05-09T02:25:36.595Z,12.70
2024-05-09T02:28:03.466Z,12.80
2024-05-09T02:30:38.626Z,12.80
2024-05-09T02:33:09.943Z,12.70
2024-05-09T02:35:38.453Z,12.70
2024-05-09T02:38:05.388Z,12.70
2024-05-09T02:40:37.299Z,12.70
2024-05-09T02:43:07.241Z,12.70
2024-05-09T02:45:34.502Z,12.70
2024-05-09T02:48:01.965Z,12.60
2024-05-09T02:50:36.633Z,12.60
2024-05-09T02:53:06.929Z,12.60
2024-05-09T02:55:34.377Z,12.60
2024-05-09T02:58:01.184Z,12.60
2024-05-09T03:00:36.697Z,12.60
2024-05-09T03:03:08.580Z,12.50
2024-05-09T03:05:37.192Z,12.50
2024-05-09T03:08:04.639Z,12.60
2024-05-09T03:10:36.107Z,12.50
2024-05-09T03:13:13.948Z,12.50
2024-05-09T03:15:42.482Z,12.50
2024-05-09T03:18:09.776Z,12.50
2024-05-09T03:20:37.844Z,12.50
2024-05-09T03:23:10.521Z,12.50
2024-05-09T03:25:38.329Z,12.50
2024-05-09T03:28:05.630Z,12.50
2024-05-09T03:30:40.011Z,12.40
2024-05-09T03:33:18.338Z,12.40
2024-05-09T03:35:47.330Z,12.50
2024-05-09T03:38:14.407Z,12.40
2024-05-09T03:40:49.904Z,12.40
2024-05-09T03:43:18.575Z,12.40
2024-05-09T03:45:47.368Z,12.40
2024-05-09T03:48:14.557Z,12.50
2024-05-09T03:50:41.670Z,12.40
2024-05-09T03:53:13.313Z,12.40
2024-05-09T03:55:40.506Z,12.40
2024-05-09T03:58:12.683Z,12.40
2024-05-09T04:00:40.374Z,12.30
2024-05-09T04:03:10.445Z,12.40
2024-05-09T04:05:40.898Z,12.40
2024-05-09T04:08:09.492Z,12.40
2024-05-09T04:10:36.602Z,12.30
2024-05-09T04:13:04.236Z,12.30
2024-05-09T04:15:31.626Z,12.30
2024-05-09T04:17:58.809Z,12.30
2024-05-09T04:20:35.993Z,12.30
2024-05-09T04:23:07.290Z,12.30
2024-05-09T04:25:34.977Z,12.30
2024-05-09T04:28:01.916Z,12.30
2024-05-09T04:30:37.593Z,12.30
2024-05-09T04:33:09.324Z,12.30
2024-05-09T04:35:38.336Z,12.30
2024-05-09T04:38:05.893Z,12.30
2024-05-09T04:40:35.908Z,12.30
2024-05-09T04:43:13.606Z,12.30
2024-05-09T04:45:40.798Z,12.30
2024-05-09T04:48:08.385Z,12.20
2024-05-09T04:50:38.421Z,12.20
2024-05-09T04:53:09.036Z,12.20
2024-05-09T04:55:37.502Z,12.20
2024-05-09T04:58:05.523Z,12.20
2024-05-09T05:00:36.930Z,12.20
2024-05-09T05:03:08.444Z,12.20
2024-05-09T05:05:40.191Z,12.20
2024-05-09T05:08:19.051Z,12.20
2024-05-09T05:10:47.602Z,12.20
2024-05-09T05:13:23.816Z,12.20
2024-05-09T05:15:57.253Z,12.20
2024-05-09T05:18:28.655Z,12.20
2024-05-09T05:20:56.466Z,12.20
2024-05-09T05:23:24.249Z,12.30
2024-05-09T05:25:53.496Z,12.20
2024-05-09T05:28:21.519Z,12.30
2024-05-09T05:30:48.299Z,12.30
2024-05-09T05:33:17.969Z,12.20
2024-05-09T05:35:45.094Z,12.30
2024-05-09T05:38:11.976Z,12.20
2024-05-09T05:40:40.324Z,12.30
2024-05-09T05:43:09.926Z,12.30
2024-05-09T05:45:37.129Z,12.30
2024-05-09T05:48:06.053Z,12.40
2024-05-09T05:50:36.701Z,12.40
2024-05-09T05:53:07.392Z,12.40
2024-05-09T05:55:35.362Z,12.40
2024-05-09T05:58:02.407Z,12.40
2024-05-09T06:00:35.540Z,12.40
2024-05-09T06:03:06.167Z,12.50
2024-05-09T06:05:33.412Z,12.50
2024-05-09T06:08:00.631Z,12.50
2024-05-09T06:10:37.106Z,12.50
2024-05-09T06:13:06.814Z,12.60
2024-05-09T06:15:33.588Z,12.50
2024-05-09T06:18:00.663Z,12.50
2024-05-09T06:20:35.176Z,12.50
2024-05-09T06:23:08.276Z,12.50
2024-05-09T06:25:36.402Z,12.50
2024-05-09T06:28:03.979Z,12.50
2024-05-09T06:30:38.772Z,12.50
2024-05-09T06:33:10.793Z,12.50
2024-05-09T06:35:39.539Z,12.50
2024-05-09T06:38:08.762Z,12.50
2024-05-09T06:40:40.123Z,12.50
2024-05-09T06:43:12.876Z,12.50
2024-05-09T06:45:40.206Z,12.50
2024-05-09T06:48:08.775Z,12.50
2024-05-09T06:50:38.250Z,12.50
2024-05-09T06:53:07.431Z,12.50
2024-05-09T06:55:34.570Z,12.60
2024-05-09T06:58:01.350Z,12.60
2024-05-09T07:00:35.680Z,12.60
2024-05-09T07:03:15.482Z,12.60
2024-05-09T07:05:44.963Z,12.70
2024-05-09T07:08:11.953Z,12.70
2024-05-09T07:10:38.846Z,12.80
2024-05-09T07:13:13.446Z,12.80
2024-05-09T07:15:41.384Z,12.80
2024-05-09T07:18:12.161Z,12.80
2024-05-09T07:20:40.452Z,12.80
2024-05-09T07:23:10.909Z,12.90
2024-05-09T07:25:38.472Z,12.90
2024-05-09T07:28:05.833Z,12.90
2024-05-09T07:30:34.516Z,13.00
2024-05-09T07:33:03.067Z,13.10
2024-05-09T07:35:30.888Z,13.20
2024-05-09T07:37:58.044Z,13.20
2024-05-09T07:40:32.925Z,13.20
2024-05-09T07:43:08.106Z,13.30
2024-05-09T07:52:32.481Z,13.40
2024-05-09T07:55:54.075Z,13.40
2024-05-09T07:58:22.320Z,13.40
2024-05-09T08:00:49.241Z,13.50
2024-05-09T08:03:16.380Z,13.50
2024-05-09T08:05:43.328Z,13.50
2024-05-09T08:08:11.313Z,13.60
2024-05-09T08:10:38.311Z,13.50
2024-05-09T08:13:05.442Z,13.60
2024-05-09T08:15:32.370Z,13.60
2024-05-09T08:18:00.108Z,13.70
2024-05-09T08:20:31.235Z,13.70
2024-05-09T08:23:01.952Z,13.70
2024-05-09T08:25:28.791Z,13.80
2024-05-09T08:27:55.703Z,13.80
2024-05-09T08:30:30.055Z,13.80
2024-05-09T08:33:04.340Z,13.80
2024-05-09T08:35:31.863Z,13.80
2024-05-09T08:37:59.109Z,13.90
2024-05-09T08:40:33.407Z,13.90
2024-05-09T08:43:06.684Z,14.00
2024-05-09T08:45:36.400Z,14.00
2024-05-09T08:48:05.930Z,13.90
2024-05-09T08:50:38.806Z,14.00
2024-05-09T08:53:07.434Z,14.00
2024-05-09T08:55:35.489Z,14.00
2024-05-09T08:58:04.127Z,14.00
2024-05-09T09:00:36.874Z,14.10
2024-05-09T09:03:08.942Z,14.00
2024-05-09T09:05:39.082Z,14.00
2024-05-09T09:08:08.511Z,14.10
2024-05-09T09:10:37.887Z,14.10
2024-05-09T09:13:07.212Z,14.00
2024-05-09T09:15:34.162Z,14.00
2024-05-09T09:18:01.521Z,14.10
2024-05-09T09:20:35.853Z,14.10
2024-05-09T09:23:04.515Z,14.20
2024-05-09T09:25:32.206Z,14.20
2024-05-09T09:27:59.313Z,14.30
2024-05-09T09:30:36.391Z,14.30
2024-05-09T09:33:06.453Z,14.30
2024-05-09T09:35:34.393Z,14.40
2024-05-09T09:38:03.184Z,14.50
2024-05-09T09:40:37.203Z,14.50
2024-05-09T09:43:14.403Z,14.60
2024-05-09T09:45:44.176Z,14.50
2024-05-09T09:48:14.773Z,14.60
2024-05-09T09:50:42.598Z,14.60
2024-05-09T09:53:10.766Z,14.60
2024-05-09T09:55:39.666Z,14.60
2024-05-09T09:58:09.538Z,14.60
2024-05-09T10:00:38.945Z,14.70
2024-05-09T10:03:05.874Z,14.80
2024-05-09T10:05:34.289Z,14.80
2024-05-09T10:08:06.960Z,14.80
2024-05-09T10:10:35.195Z,14.80
2024-05-09T10:13:06.490Z,14.90
2024-05-09T10:15:47.277Z,14.90
2024-05-09T10:18:15.104Z,15.00
2024-05-09T10:20:46.894Z,15.10
2024-05-09T10:23:30.520Z,15.10
2024-05-09T10:26:08.441Z,15.10
2024-05-09T10:28:38.896Z,15.20
2024-05-09T10:31:16.315Z,15.30
2024-05-09T10:33:52.539Z,15.30
2024-05-09T10:36:27.334Z,15.40
2024-05-09T10:38:55.965Z,15.40
2024-05-09T10:41:23.922Z,15.40
2024-05-09T10:43:51.471Z,15.40
2024-05-09T10:46:21.421Z,15.30
2024-05-09T10:48:48.925Z,15.40
2024-05-09T10:51:18.284Z,15.50
2024-05-09T10:53:46.733Z,15.60
2024-05-09T10:56:14.678Z,15.80
2024-05-09T10:58:41.729Z,15.70
2024-05-09T11:01:09.790Z,15.80
2024-05-09T11:03:37.397Z,15.80
2024-05-09T11:06:06.237Z,15.80
2024-05-09T11:08:33.982Z,15.80
2024-05-09T11:11:02.840Z,15.70
2024-05-09T11:13:37.252Z,15.60
2024-05-09T11:16:05.752Z,15.70
2024-05-09T11:18:37.805Z,15.80
2024-05-09T11:21:14.467Z,15.90
2024-05-09T11:23:41.456Z,15.90
2024-05-09T11:26:09.163Z,15.90
2024-05-09T11:28:35.987Z,15.90
2024-05-09T11:31:10.669Z,15.90
2024-05-09T11:33:39.569Z,15.80
2024-05-09T11:36:07.744Z,15.90
2024-05-09T11:38:35.188Z,16.00
2024-05-09T11:41:02.847Z,16.00
2024-05-09T11:43:29.684Z,16.00
2024-05-09T11:46:00.348Z,16.00
2024-05-09T11:48:27.752Z,16.00
2024-05-09T11:50:55.602Z,16.10
2024-05-09T11:53:22.597Z,16.10
2024-05-09T11:55:49.652Z,16.20
2024-05-09T11:58:18.193Z,16.30
2024-05-09T12:00:46.564Z,16.30
2024-05-09T12:03:13.894Z,16.50
2024-05-09T12:05:41.002Z,16.40
2024-05-09T12:08:08.265Z,16.50
2024-05-09T12:10:36.476Z,16.50
2024-05-09T12:13:06.008Z,16.60
2024-05-09T12:15:37.298Z,16.60
2024-05-09T12:18:06.046Z,16.60
2024-05-09T12:20:37.509Z,16.50
2024-05-09T12:23:07.338Z,16.50
2024-05-09T12:25:34.847Z,16.50
2024-05-09T12:28:02.005Z,16.50
2024-05-09T12:30:36.238Z,16.60
2024-05-09T12:33:11.567Z,16.40
2024-05-09T12:35:39.492Z,16.50
2024-05-09T12:38:06.248Z,16.60
2024-05-09T12:40:36.900Z,16.70
2024-05-09T12:43:08.443Z,16.70
2024-05-09T12:45:36.439Z,16.80
2024-05-09T12:48:04.533Z,16.90
2024-05-09T12:50:33.865Z,17.00
2024-05-09T12:53:02.738Z,17.00
2024-05-09T12:55:37.159Z,17.00
2024-05-09T12:58:11.592Z,16.90
2024-05-09T13:00:38.727Z,16.80
2024-05-09T13:03:06.024Z,16.70
2024-05-09T13:05:33.033Z,16.70
2024-05-09T13:08:00.682Z,16.70
2024-05-09T13:10:32.355Z,16.80
2024-05-09T13:13:01.495Z,16.80
2024-05-09T13:15:30.258Z,16.90
2024-05-09T13:18:00.297Z,17.00
2024-05-09T13:20:33.514Z,17.00
2024-05-09T13:23:07.955Z,17.10
2024-05-09T13:25:38.250Z,17.00
2024-05-09T13:28:09.195Z,17.00
2024-05-09T13:30:41.226Z,17.00
2024-05-09T13:33:11.545Z,17.00
2024-05-09T13:35:40.760Z,16.90
2024-05-09T13:38:09.069Z,17.00
2024-05-09T13:40:36.672Z,17.00
2024-05-09T13:43:05.346Z,17.00
2024-05-09T13:45:32.916Z,17.10
2024-05-09T13:48:00.310Z,17.20
2024-05-09T13:50:34.071Z,17.30
2024-05-09T13:53:04.839Z,17.40
2024-05-09T13:55:32.407Z,17.40
2024-05-09T13:57:59.321Z,17.60
2024-05-09T14:00:38.326Z,17.50
2024-05-09T14:03:11.736Z,17.60
2024-05-09T14:05:38.906Z,17.80
2024-05-09T14:08:06.100Z,17.80
2024-05-09T14:10:33.084Z,17.80
2024-05-09T14:13:01.143Z,17.70
2024-05-09T14:15:28.211Z,17.70
2024-05-09T14:17:55.718Z,17.60
2024-05-09T14:20:30.710Z,17.70
2024-05-09T14:23:00.669Z,17.80
2024-05-09T14:25:29.470Z,17.70
2024-05-09T14:27:58.038Z,17.70
2024-05-09T14:30:34.508Z,17.70
2024-05-09T14:33:05.273Z,17.60
2024-05-09T14:35:32.753Z,17.60
2024-05-09T14:37:59.624Z,17.70
2024-05-09T14:40:36.929Z,17.80
2024-05-09T14:43:09.707Z,17.80
2024-05-09T14:45:36.735Z,18.00
2024-05-09T14:48:04.172Z,18.00
2024-05-09T14:50:37.519Z,18.10
2024-05-09T14:53:15.320Z,18.20
2024-05-09T14:55:43.420Z,18.20
2024-05-09T14:58:11.898Z,18.10
2024-05-09T15:00:47.927Z,18.00
2024-05-09T15:03:18.935Z,18.10
2024-05-09T15:05:47.149Z,18.30
2024-05-09T15:08:14.320Z,18.30
2024-05-09T15:10:41.208Z,18.40
2024-05-09T15:13:19.468Z,18.30
2024-05-09T15:15:46.756Z,18.30
2024-05-09T15:18:17.271Z,18.30
2024-05-09T15:20:44.889Z,18.20
2024-05-09T15:23:14.354Z,18.30
2024-05-09T15:25:46.458Z,18.20
2024-05-09T15:28:13.727Z,18.10
2024-05-09T15:30:42.926Z,18.20
2024-05-09T15:33:12.356Z,18.20
2024-05-09T15:35:51.679Z,18.20
2024-05-09T15:38:19.256Z,18.20
2024-05-09T15:40:46.301Z,18.20
2024-05-09T15:43:13.703Z,18.30
2024-05-09T15:45:41.553Z,18.30
2024-05-09T15:48:18.843Z,18.30
2024-05-09T15:50:45.901Z,18.30
2024-05-09T15:53:13.437Z,18.30
2024-05-09T15:55:42.313Z,18.30
2024-05-09T15:58:36.856Z,18.40
2024-05-09T16:01:04.103Z,18.40
2024-05-09T16:03:31.127Z,18.40
2024-05-09T16:06:01.252Z,18.40
2024-05-09T16:08:53.628Z,18.40
2024-05-09T16:11:20.912Z,18.40
2024-05-09T16:13:47.822Z,18.40
2024-05-09T16:16:30.587Z,18.40
2024-05-09T16:18:57.540Z,18.40
2024-05-09T16:21:24.364Z,18.30
2024-05-09T16:23:51.163Z,18.20
2024-05-09T16:26:18.765Z,18.30
2024-05-09T16:28:49.352Z,18.30
2024-05-09T16:31:16.207Z,18.30
2024-05-09T16:33:43.154Z,18.20
2024-05-09T16:36:10.082Z,18.20
2024-05-09T16:38:37.005Z,18.20
2024-05-09T16:41:15.414Z,18.20
2024-05-09T16:43:42.228Z,18.20
2024-05-09T16:46:09.346Z,18.20
2024-05-09T16:48:37.281Z,18.20
2024-05-09T16:51:22.435Z,18.10
2024-05-09T16:53:49.205Z,18.10
2024-05-09T16:56:16.115Z,18.10
2024-05-09T16:58:43.361Z,18.10
2024-05-09T17:03:55.111Z,18.20
2024-05-09T17:06:22.082Z,18.10
2024-05-09T17:08:49.406Z,18.00
2024-05-09T17:11:16.525Z,18.00
2024-05-09T17:13:52.570Z,18.00
2024-05-09T17:16:20.906Z,18.00
2024-05-09T17:18:48.749Z,18.00
2024-05-09T17:21:15.811Z,18.00
2024-05-09T17:23:43.101Z,18.00
2024-05-09T17:26:16.075Z,18.00
2024-05-09T17:28:43.029Z,18.10
2024-05-09T17:31:10.402Z,18.10
2024-05-09T17:33:37.397Z,18.10
2024-05-09T17:36:04.539Z,18.10
2024-05-09T17:38:40.620Z,18.10
2024-05-09T17:41:07.536Z,18.00
2024-05-09T17:43:34.399Z,18.00
2024-05-09T17:46:01.359Z,18.00
2024-05-09T17:48:28.394Z,18.00
2024-05-09T17:51:04.449Z,17.90
2024-05-09T17:53:31.311Z,17.90
2024-05-09T17:56:00.231Z,17.90
2024-05-09T17:58:27.439Z,17.90
2024-05-09T18:00:56.312Z,17.90
2024-05-09T18:03:32.148Z,17.90
2024-05-09T18:05:59.521Z,17.90
2024-05-09T18:08:26.314Z,17.90
2024-05-09T18:10:55.372Z,17.80
2024-05-09T18:13:23.869Z,17.90
2024-05-09T18:15:50.734Z,17.80
2024-05-09T18:18:17.623Z,17.70
2024-05-09T18:20:46.080Z,17.80
2024-05-09T18:23:16.235Z,17.70
2024-05-09T18:26:01.325Z,17.70
2024-05-09T18:28:28.256Z,17.70
2024-05-09T18:30:55.089Z,17.70
2024-05-09T18:33:22.237Z,17.70
2024-05-09T18:35:50.846Z,17.70
2024-05-09T18:38:18.942Z,17.60
2024-05-09T18:40:48.505Z,17.60
2024-05-09T18:43:16.689Z,17.70
2024-05-09T18:45:44.467Z,17.50
2024-05-09T18:48:12.206Z,17.50
2024-05-09T18:50:41.083Z,17.40
2024-05-09T18:53:11.018Z,17.30
2024-05-09T18:55:38.753Z,17.20
2024-05-09T18:58:05.624Z,17.20
2024-05-09T19:00:36.498Z,17.10
2024-05-09T19:03:11.413Z,17.10
2024-05-09T19:05:40.999Z,17.10
2024-05-09T19:08:08.939Z,17.00
2024-05-09T19:10:38.722Z,16.90
2024-05-09T19:13:10.681Z,16.90
2024-05-09T19:15:40.482Z,16.80
2024-05-09T19:18:08.254Z,16.90
2024-05-09T19:20:36.576Z,16.70
2024-05-09T19:23:05.564Z,16.70
2024-05-09T19:25:33.782Z,16.70
2024-05-09T19:28:01.297Z,16.60
2024-05-09T19:30:37.058Z,16.60
2024-05-09T19:33:08.231Z,16.50
2024-05-09T19:35:38.836Z,16.50
2024-05-09T19:38:06.068Z,16.50
2024-05-09T19:40:34.256Z,16.40
2024-05-09T19:43:03.135Z,16.40
2024-05-09T19:45:31.217Z,16.40
2024-05-09T19:47:58.496Z,16.40
2024-05-09T19:50:32.912Z,16.30
2024-05-09T19:53:07.948Z,16.30
2024-05-09T19:55:35.162Z,16.20
2024-05-09T19:58:05.138Z,16.10
2024-05-09T20:00:39.465Z,16.00
2024-05-09T20:03:09.168Z,16.00
2024-05-09T20:05:37.137Z,15.90
2024-05-09T20:08:04.738Z,15.80
2024-05-09T20:10:33.770Z,15.80
2024-05-09T20:13:03.303Z,15.70
2024-05-09T20:15:30.815Z,15.70
2024-05-09T20:17:57.881Z,15.70
2024-05-09T20:20:33.608Z,15.70
2024-05-09T20:23:08.849Z,15.60
2024-05-09T20:25:35.785Z,15.50
2024-05-09T20:28:02.682Z,15.40
2024-05-09T20:30:32.850Z,15.40
2024-05-09T20:33:03.211Z,15.30
2024-05-09T20:35:34.108Z,15.20
2024-05-09T20:38:02.181Z,15.20
2024-05-09T20:40:34.145Z,15.20
2024-05-09T20:43:04.714Z,15.20
2024-05-09T20:45:31.983Z,15.10
2024-05-09T20:47:59.046Z,15.10
2024-05-09T20:50:36.138Z,15.00
2024-05-09T20:53:12.190Z,15.00
2024-05-09T20:55:40.232Z,14.90
2024-05-09T20:58:07.060Z,14.80
2024-05-09T21:00:39.561Z,14.80
2024-05-09T21:03:10.172Z,14.80
2024-05-09T21:05:37.265Z,14.70
2024-05-09T21:08:04.485Z,14.70
2024-05-09T21:10:33.418Z,14.70
2024-05-09T21:13:02.554Z,14.70
2024-05-09T21:15:30.046Z,14.60
2024-05-09T21:17:56.947Z,14.60
2024-05-09T21:20:30.481Z,14.50
2024-05-09T21:22:59.042Z,14.50
2024-05-09T21:25:25.993Z,14.50
2024-05-09T21:27:53.404Z,14.50
2024-05-09T21:30:32.169Z,14.50
2024-05-09T21:33:09.362Z,14.40
2024-05-09T21:35:37.593Z,14.40
2024-05-09T21:38:04.817Z,14.30
2024-05-09T21:40:35.162Z,14.30
2024-05-09T21:43:04.583Z,14.20
2024-05-09T21:45:32.292Z,14.20
2024-05-09T21:47:59.732Z,14.10
2024-05-09T21:50:35.422Z,14.10
2024-05-09T21:53:06.779Z,14.00
2024-05-09T21:55:33.842Z,14.00
2024-05-09T21:58:00.892Z,14.00
2024-05-09T22:00:35.369Z,14.00
2024-05-09T22:03:06.162Z,14.00
2024-05-09T22:05:33.798Z,14.00
2024-05-09T22:08:00.951Z,13.90
2024-05-09T22:10:33.740Z,13.90
2024-05-09T22:13:03.594Z,13.90
2024-05-09T22:15:33.587Z,13.90
2024-05-09T22:18:00.571Z,13.90
2024-05-09T22:20:34.388Z,13.80
2024-05-09T22:23:05.061Z,13.80
2024-05-09T22:25:32.615Z,13.70
2024-05-09T22:28:01.797Z,13.70
2024-05-09T22:30:35.836Z,13.70
2024-05-09T22:33:07.130Z,13.60
2024-05-09T22:35:34.180Z,13.60
2024-05-09T22:38:01.994Z,13.50
2024-05-09T22:40:38.529Z,13.50
2024-05-09T22:43:13.780Z,13.50
2024-05-09T22:45:40.914Z,13.40
2024-05-09T22:48:08.564Z,13.40
2024-05-09T22:50:36.343Z,13.40
2024-05-09T22:53:03.189Z,13.30
2024-05-09T22:55:30.257Z,13.30
2024-05-09T22:57:57.163Z,13.30
2024-05-09T23:02:53.914Z,13.20
2024-05-09T23:05:20.953Z,13.20
2024-05-09T23:07:47.797Z,13.10
2024-05-09T23:10:21.270Z,13.10
2024-05-09T23:12:55.124Z,13.00
2024-05-09T23:15:22.023Z,13.00
2024-05-09T23:17:48.946Z,13.00
2024-05-09T23:20:21.727Z,13.00
2024-05-09T23:22:55.775Z,13.10
2024-05-09T23:25:22.830Z,13.00
2024-05-09T23:27:49.759Z,12.90
2024-05-09T23:30:28.316Z,12.90
2024-05-09T23:33:01.408Z,12.90
2024-05-09T23:35:28.397Z,12.80
2024-05-09T23:37:55.212Z,12.80
2024-05-09T23:40:23.495Z,12.80
2024-05-09T23:42:53.520Z,12.70
2024-05-09T23:45:20.389Z,12.70
2024-05-09T23:47:47.436Z,12.70
2024-05-09T23:50:20.334Z,12.60
2024-05-09T23:52:50.566Z,12.60
2024-05-09T23:55:17.564Z,12.60
2024-05-09T23:57:44.580Z,12.60
